createdAt,value
2022-10-23T00:03:52.217Z,98
2022-10-23T00:08:48.876Z,98
2022-10-23T00:13:48.659Z,98
2022-10-23T00:18:47.878Z,98
2022-10-23T00:23:47.810Z,98
2022-10-23T00:28:45.597Z,98
2022-10-23T00:33:45.264Z,98
2022-10-23T00:38:45.379Z,99
2022-10-23T00:43:45.057Z,99
2022-10-23T00:48:43.914Z,99
2022-10-23T00:53:43.629Z,99
2022-10-23T00:58:43.375Z,99
2022-10-23T01:03:43.080Z,99
2022-10-23T01:08:44.068Z,99
2022-10-23T01:13:40.592Z,99
2022-10-23T01:18:40.335Z,99
2022-10-23T01:23:39.355Z,99
2022-10-23T01:28:38.762Z,99
2022-10-23T01:33:38.345Z,99
2022-10-23T01:38:38.459Z,99
2022-10-23T01:43:37.257Z,99
2022-10-23T01:48:38.403Z,99
2022-10-23T01:53:35.314Z,100
2022-10-23T01:58:35.737Z,100
2022-10-23T01:59:56.677Z,100
2022-10-23T02:04:56.514Z,100
2022-10-23T02:09:54.319Z,100
2022-10-23T02:14:54.229Z,100
2022-10-23T02:19:54.034Z,100
2022-10-23T02:24:53.427Z,100
2022-10-23T02:29:52.450Z,100
2022-10-23T02:34:52.333Z,100
2022-10-23T02:39:52.462Z,100
2022-10-23T02:44:51.666Z,100
2022-10-23T02:49:52.437Z,100
2022-10-23T02:54:49.353Z,100
2022-10-23T02:59:09.148Z,100
2022-10-23T03:04:09.507Z,100
2022-10-23T03:09:08.688Z,100
2022-10-23T03:14:08.130Z,100
2022-10-23T03:19:07.847Z,100
2022-10-23T03:24:07.245Z,100
2022-10-23T03:29:08.066Z,100
2022-10-23T03:34:08.840Z,100
2022-10-23T03:39:04.932Z,100
2022-10-23T03:49:03.742Z,100
2022-10-23T03:54:02.248Z,100
2022-10-23T03:58:57.681Z,100
2022-10-23T04:03:58.100Z,101
2022-10-23T04:08:57.539Z,101
2022-10-23T04:13:56.960Z,101
2022-10-23T04:18:56.039Z,101
2022-10-23T04:23:56.109Z,101
2022-10-23T04:28:55.125Z,101
2022-10-23T04:33:56.130Z,101
2022-10-23T04:38:53.083Z,101
2022-10-23T04:43:52.622Z,101
2022-10-23T04:48:52.225Z,101
2022-10-23T04:53:51.145Z,101
2022-10-23T04:58:50.447Z,101
2022-10-23T05:03:50.585Z,101
2022-10-23T05:08:49.112Z,101
2022-10-23T05:13:50.249Z,101
2022-10-23T05:18:47.109Z,100
2022-10-23T05:23:47.382Z,101
2022-10-23T05:28:46.117Z,101
2022-10-23T05:33:46.039Z,101
2022-10-23T05:38:44.180Z,100
2022-10-23T05:43:43.953Z,101
2022-10-23T05:48:43.902Z,100
2022-10-23T05:53:43.996Z,100
2022-10-23T05:58:42.972Z,101
2022-10-23T06:03:42.071Z,101
2022-10-23T06:08:42.444Z,101
2022-10-23T06:13:41.788Z,101
2022-10-23T06:18:39.574Z,101
2022-10-23T06:23:39.461Z,101
2022-10-23T06:28:38.663Z,101
2022-10-23T06:33:39.430Z,101
2022-10-23T06:38:36.529Z,101
2022-10-23T06:43:36.517Z,101
2022-10-23T06:48:35.318Z,101
2022-10-23T06:53:35.107Z,101
2022-10-23T06:58:33.236Z,101
2022-10-23T06:59:54.363Z,101
2022-10-23T07:04:54.451Z,101
2022-10-23T07:09:53.641Z,101
2022-10-23T07:14:53.237Z,101
2022-10-23T07:19:52.673Z,101
2022-10-23T07:24:52.581Z,101
2022-10-23T07:29:52.175Z,101
2022-10-23T07:34:52.813Z,100
2022-10-23T07:39:50.100Z,101
2022-10-23T07:44:49.817Z,101
2022-10-23T07:49:49.111Z,101
2022-10-23T07:54:49.055Z,101
2022-10-23T07:59:14.587Z,101
2022-10-23T08:04:14.878Z,100
2022-10-23T08:09:13.942Z,100
2022-10-23T08:14:15.064Z,99
2022-10-23T08:19:12.364Z,99
2022-10-23T08:24:12.495Z,98
2022-10-23T08:29:11.475Z,97
2022-10-23T08:34:11.293Z,97
2022-10-23T08:39:09.439Z,95
2022-10-23T08:44:09.517Z,93
2022-10-23T08:49:09.381Z,91
2022-10-23T08:54:09.348Z,89
2022-10-23T08:58:55.512Z,86
2022-10-23T09:03:55.211Z,84
2022-10-23T09:08:54.946Z,83
2022-10-23T09:13:54.397Z,82
2022-10-23T09:18:54.983Z,82
2022-10-23T09:23:52.851Z,81
2022-10-23T09:28:52.996Z,81
2022-10-23T09:33:52.443Z,79
2022-10-23T09:38:51.621Z,78
2022-10-23T09:43:51.139Z,77
2022-10-23T09:48:51.392Z,77
2022-10-23T09:53:50.537Z,75
2022-10-23T09:58:51.791Z,73
2022-10-23T10:03:48.443Z,74
2022-10-23T10:08:48.619Z,74
2022-10-23T10:13:47.478Z,71
2022-10-23T10:18:47.251Z,71
2022-10-23T10:23:45.532Z,70
2022-10-23T10:28:45.771Z,69
2022-10-23T10:33:45.537Z,68
2022-10-23T10:38:45.355Z,66
2022-10-23T10:43:44.553Z,67
2022-10-23T10:48:44.283Z,67
2022-10-23T10:53:44.237Z,68
2022-10-23T10:58:43.656Z,67
2022-10-23T11:03:44.455Z,68
2022-10-23T11:13:41.074Z,67
2022-10-23T11:18:40.438Z,68
2022-10-23T11:23:39.657Z,70
2022-10-23T11:28:39.110Z,70
2022-10-23T11:33:42.602Z,68
2022-10-23T11:38:38.930Z,68
2022-10-23T11:43:39.783Z,65
2022-10-23T11:48:36.988Z,65
2022-10-23T11:53:36.880Z,62
2022-10-23T11:58:36.178Z,62
2022-10-23T11:59:58.399Z,62
2022-10-23T12:04:56.852Z,64
2022-10-23T12:09:56.086Z,61
2022-10-23T12:14:56.309Z,63
2022-10-23T12:19:55.306Z,65
2022-10-23T12:24:55.022Z,62
2022-10-23T12:29:54.411Z,61
2022-10-23T12:34:54.627Z,61
2022-10-23T12:39:53.897Z,61
2022-10-23T12:44:54.537Z,61
2022-10-23T12:49:51.637Z,61
2022-10-23T12:54:51.835Z,63
2022-10-23T12:59:13.760Z,63
2022-10-23T13:04:13.457Z,65
2022-10-23T13:09:12.648Z,62
2022-10-23T13:14:13.039Z,61
2022-10-23T13:19:12.431Z,59
2022-10-23T13:24:13.347Z,59
2022-10-23T13:29:10.542Z,60
2022-10-23T13:34:10.509Z,62
2022-10-23T13:39:09.190Z,65
2022-10-23T13:44:08.636Z,65
2022-10-23T13:49:06.682Z,65
2022-10-23T13:54:06.758Z,66
2022-10-23T13:58:52.391Z,66
2022-10-23T14:03:52.283Z,67
2022-10-23T14:08:51.069Z,68
2022-10-23T14:13:50.582Z,69
2022-10-23T14:18:49.715Z,70
2022-10-23T14:23:49.254Z,70
2022-10-23T14:28:54.889Z,73
2022-10-23T14:33:45.711Z,74
2022-10-23T14:38:45.981Z,76
2022-10-23T14:43:44.130Z,77
2022-10-23T14:48:49.407Z,77
2022-10-23T14:53:43.714Z,77
2022-10-23T14:58:43.015Z,79
2022-10-23T15:03:42.293Z,80
2022-10-23T15:08:41.582Z,80
2022-10-23T15:13:41.410Z,79
2022-10-23T15:18:40.401Z,82
2022-10-23T15:23:41.180Z,82
2022-10-23T15:28:38.594Z,82
2022-10-23T15:33:38.228Z,82
2022-10-23T15:38:37.745Z,83
2022-10-23T15:43:37.047Z,83
2022-10-23T15:48:36.010Z,83
2022-10-23T15:53:35.321Z,84
2022-10-23T15:58:35.196Z,84
2022-10-23T16:03:34.159Z,86
2022-10-23T16:08:32.067Z,86
2022-10-23T16:13:31.752Z,87
2022-10-23T16:18:32.420Z,87
2022-10-23T16:23:31.054Z,87
2022-10-23T16:28:29.458Z,88
2022-10-23T16:33:28.710Z,88
2022-10-23T16:38:29.023Z,87
2022-10-23T16:43:28.102Z,87
2022-10-23T16:48:27.554Z,86
2022-10-23T16:53:26.834Z,86
2022-10-23T16:58:26.833Z,85
2022-10-23T16:59:48.349Z,84
2022-10-23T17:04:49.010Z,83
2022-10-23T17:09:46.287Z,82
2022-10-23T17:14:46.109Z,83
2022-10-23T17:19:47.112Z,84
2022-10-23T17:24:50.115Z,85
2022-10-23T17:29:43.017Z,86
2022-10-23T17:34:42.912Z,87
2022-10-23T17:39:42.715Z,89
2022-10-23T17:44:44.002Z,89
2022-10-23T17:49:46.095Z,89
2022-10-23T17:54:40.929Z,90
2022-10-23T17:59:11.308Z,89
2022-10-23T18:04:10.993Z,89
2022-10-23T18:09:09.000Z,90
2022-10-23T18:14:08.759Z,90
2022-10-23T18:19:08.571Z,90
2022-10-23T18:24:07.992Z,91
2022-10-23T18:29:06.840Z,92
2022-10-23T18:34:06.533Z,92
2022-10-23T18:39:06.399Z,93
2022-10-23T18:44:05.717Z,93
2022-10-23T18:49:06.371Z,93
2022-10-23T18:54:03.522Z,94
2022-10-23T18:58:49.428Z,94
2022-10-23T19:03:49.004Z,95
2022-10-23T19:08:48.083Z,95
2022-10-23T19:13:46.843Z,95
2022-10-23T19:18:45.920Z,95
2022-10-23T19:23:45.622Z,95
2022-10-23T19:28:46.626Z,95
2022-10-23T19:33:43.495Z,94
2022-10-23T19:38:43.401Z,94
2022-10-23T19:43:42.121Z,94
2022-10-23T19:48:42.445Z,94
2022-10-23T19:53:40.291Z,95
2022-10-23T19:58:39.745Z,95
2022-10-23T20:00:01.667Z,95
2022-10-23T20:05:00.423Z,96
2022-10-23T20:09:59.407Z,96
2022-10-23T20:14:59.111Z,97
2022-10-23T20:19:58.691Z,97
2022-10-23T20:24:58.040Z,97
2022-10-23T20:29:58.785Z,98
2022-10-23T20:34:56.030Z,98
2022-10-23T20:39:55.699Z,98
2022-10-23T20:44:55.468Z,98
2022-10-23T20:49:54.766Z,98
2022-10-23T20:54:52.872Z,98
2022-10-23T20:59:26.687Z,99
2022-10-23T21:04:26.935Z,99
2022-10-23T21:09:13.899Z,99
2022-10-23T21:14:13.642Z,99
2022-10-23T21:19:13.336Z,99
2022-10-23T21:24:13.192Z,99
2022-10-23T21:29:20.227Z,99
2022-10-23T21:34:12.314Z,99
2022-10-23T21:39:11.552Z,99
2022-10-23T21:44:11.343Z,99
2022-10-23T21:49:11.996Z,99
2022-10-23T21:54:08.902Z,99
2022-10-23T21:58:55.824Z,99
2022-10-23T22:03:55.001Z,100
2022-10-23T22:08:54.151Z,100
2022-10-23T22:13:53.333Z,100
2022-10-23T22:18:52.472Z,100
2022-10-23T22:23:52.759Z,100
2022-10-23T22:28:53.276Z,100
2022-10-23T22:33:50.015Z,100
2022-10-23T22:38:50.474Z,100
2022-10-23T22:43:49.225Z,100
2022-10-23T22:48:48.507Z,100
2022-10-23T22:53:48.090Z,100
2022-10-23T22:58:47.673Z,100
2022-10-23T23:03:46.402Z,100
2022-10-23T23:08:47.707Z,100
2022-10-23T23:13:44.425Z,100
2022-10-23T23:18:44.541Z,100
2022-10-23T23:23:43.379Z,100
2022-10-23T23:28:43.146Z,100
2022-10-23T23:33:41.873Z,100
2022-10-23T23:38:41.282Z,100
2022-10-23T23:43:41.133Z,100
2022-10-23T23:48:40.674Z,100
2022-10-23T23:53:39.750Z,100
2022-10-23T23:58:39.478Z,100
